Time;durP1;ratioP1;P1;durP2;ratioP2;P2;SDS_P1;SDS_P2;PMS_P1;PMS_P2;Temp;Humidity;BMP_temperature;BMP_pressure;BME280_temperature;BME280_humidity;BME280_pressure;Samples;Min_cycle;Max_cycle;Signal;HPM_P1;HPM_P2
2022/05/20 00:00:46;;;;;;;6.20;3.75;;;17.70;99.90;;;;;;4790588;30;20538;-87
2022/05/20 00:03:13;;;;;;;4.97;3.58;;;17.60;99.90;;;;;;4790503;29;20679;-86
2022/05/20 00:05:38;;;;;;;6.93;4.35;;;17.70;99.90;;;;;;4789003;29;20182;-86
2022/05/20 00:08:05;;;;;;;6.13;3.88;;;17.60;99.90;;;;;;4787949;30;20199;-86
2022/05/20 00:10:31;;;;;;;8.90;4.57;;;17.70;99.90;;;;;;4802811;29;20207;-86
2022/05/20 00:12:57;;;;;;;7.25;4.32;;;17.70;99.90;;;;;;4807623;29;20631;-86
2022/05/20 00:15:26;;;;;;;4.95;4.32;;;17.70;99.90;;;;;;4806971;29;20222;-86
2022/05/20 00:17:51;;;;;;;8.13;5.32;;;17.60;99.90;;;;;;4800487;29;20195;-86
2022/05/20 00:20:19;;;;;;;7.47;5.53;;;17.70;99.90;;;;;;4804443;29;20179;-87
2022/05/20 00:22:45;;;;;;;9.98;7.05;;;17.70;99.90;;;;;;4790280;29;20191;-86
2022/05/20 00:27:59;;;;;;;8.88;6.97;;;17.80;99.90;;;;;;4790746;30;20182;-87
2022/05/20 00:30:24;;;;;;;8.00;7.10;;;17.80;99.90;;;;;;4790219;30;20182;-87
2022/05/20 00:32:52;;;;;;;10.32;7.53;;;17.80;99.90;;;;;;4790318;29;20620;-87
2022/05/20 00:35:19;;;;;;;8.02;7.22;;;17.80;99.90;;;;;;4790230;29;20187;-88
2022/05/20 00:37:49;;;;;;;8.80;7.18;;;17.70;99.90;;;;;;4789211;30;20532;-87
2022/05/20 00:40:18;;;;;;;9.32;7.80;;;17.80;99.90;;;;;;4800622;29;20259;-87
2022/05/20 00:42:44;;;;;;;10.68;8.63;;;17.80;99.90;;;;;;4822434;29;20231;-88
2022/05/20 00:45:12;;;;;;;12.05;9.20;;;17.90;99.90;;;;;;4821925;29;20190;-87
2022/05/20 00:47:37;;;;;;;11.50;9.15;;;17.80;99.90;;;;;;4822128;29;20194;-86
2022/05/20 00:50:10;;;;;;;10.63;9.27;;;17.80;99.90;;;;;;4806115;29;20186;-87
2022/05/20 00:52:38;;;;;;;13.77;9.30;;;17.90;99.90;;;;;;4808045;29;20183;-87
2022/05/20 00:55:10;;;;;;;12.18;8.98;;;17.80;99.90;;;;;;4807807;29;20527;-87
2022/05/20 00:57:44;;;;;;;11.05;9.30;;;17.80;99.90;;;;;;4821864;29;20179;-86
2022/05/20 01:00:19;;;;;;;10.82;9.63;;;17.90;99.90;;;;;;4821472;29;20234;-87
2022/05/20 01:02:47;;;;;;;12.43;9.65;;;17.80;99.90;;;;;;4807880;29;20167;-88
2022/05/20 01:05:27;;;;;;;11.10;9.52;;;17.90;99.90;;;;;;4807897;29;20194;-86
2022/05/20 01:07:54;;;;;;;10.63;9.60;;;17.80;99.90;;;;;;4807722;29;20159;-87
2022/05/20 01:10:20;;;;;;;10.65;9.50;;;17.90;99.90;;;;;;4807904;29;20190;-87
2022/05/20 01:12:48;;;;;;;10.85;9.07;;;17.80;99.90;;;;;;4819091;29;20183;-86
2022/05/20 01:15:14;;;;;;;12.45;9.88;;;17.80;99.90;;;;;;4789286;29;20191;-87
2022/05/20 01:17:40;;;;;;;13.65;10.23;;;17.70;99.90;;;;;;4802439;29;20187;-89
2022/05/20 01:20:10;;;;;;;13.52;10.52;;;17.70;99.90;;;;;;4790052;29;20172;-87
2022/05/20 01:22:56;;;;;;;13.43;10.68;;;17.70;99.90;;;;;;4789242;29;20168;-88
2022/05/20 01:25:23;;;;;;;12.00;10.48;;;17.60;99.90;;;;;;4792207;29;20214;-88
2022/05/20 01:27:50;;;;;;;14.43;11.13;;;17.50;99.90;;;;;;4788606;29;20191;-88
2022/05/20 01:30:25;;;;;;;12.07;10.88;;;17.50;99.90;;;;;;4788458;29;20594;-87
2022/05/20 01:32:51;;;;;;;13.45;11.20;;;17.50;99.90;;;;;;4789685;29;20186;-87
2022/05/20 01:35:34;;;;;;;14.23;11.18;;;17.40;99.90;;;;;;4789655;29;20205;-87
2022/05/20 01:38:02;;;;;;;16.05;12.20;;;17.40;99.90;;;;;;4789916;29;20175;-87
2022/05/20 01:40:45;;;;;;;21.88;11.88;;;17.40;99.90;;;;;;4802528;29;20222;-88
2022/05/20 01:43:26;;;;;;;16.38;11.48;;;17.40;99.90;;;;;;4821782;29;20207;-88
2022/05/20 01:46:12;;;;;;;13.48;11.25;;;17.40;99.90;;;;;;4807354;29;20254;-89
2022/05/20 01:48:53;;;;;;;14.43;11.43;;;17.40;99.90;;;;;;4821961;29;20302;-88
2022/05/20 01:51:25;;;;;;;12.85;11.40;;;17.50;99.90;;;;;;4807750;29;20611;-88
2022/05/20 01:54:00;;;;;;;12.73;10.90;;;17.50;99.90;;;;;;4807655;29;20175;-87
2022/05/20 01:56:42;;;;;;;13.77;12.20;;;17.50;99.90;;;;;;4804305;29;20300;-88
2022/05/20 01:59:29;;;;;;;12.90;11.32;;;17.60;99.90;;;;;;4771648;30;20233;-88
2022/05/20 02:02:07;;;;;;;18.15;11.60;;;17.60;99.90;;;;;;4788262;29;20292;-88
2022/05/20 02:04:43;;;;;;;15.00;13.38;;;17.60;99.90;;;;;;4774946;30;20288;-88
2022/05/20 02:07:16;;;;;;;15.82;12.63;;;17.50;99.90;;;;;;4775282;30;20183;-88
2022/05/20 02:12:22;;;;;;;13.48;11.55;;;17.50;99.90;;;;;;5045605;24;20250;-87
2022/05/20 02:15:06;;;;;;;17.52;13.07;;;17.50;99.90;;;;;;4792596;29;20191;-87
2022/05/20 02:17:37;;;;;;;15.15;12.73;;;17.50;99.90;;;;;;4792760;29;20172;-87
2022/05/20 02:20:20;;;;;;;20.67;13.90;;;17.50;99.90;;;;;;4792579;29;20183;-87
2022/05/20 02:23:00;;;;;;;19.42;15.05;;;17.50;99.90;;;;;;4791510;30;20207;-87
2022/05/20 02:25:29;;;;;;;18.08;15.23;;;17.50;99.90;;;;;;4792661;30;20168;-89
2022/05/20 02:28:02;;;;;;;16.15;14.43;;;17.50;99.90;;;;;;4791535;30;20532;-87
2022/05/20 02:30:32;;;;;;;19.02;14.85;;;17.50;99.90;;;;;;4792579;29;20674;-88
2022/05/20 02:33:07;;;;;;;19.45;15.60;;;17.40;99.90;;;;;;4791355;30;20191;-85
2022/05/20 02:35:34;;;;;;;19.73;14.45;;;17.40;99.90;;;;;;4792185;30;20620;-86
2022/05/20 02:38:22;;;;;;;21.08;15.35;;;17.40;99.90;;;;;;4791065;29;20531;-86
2022/05/20 02:40:50;;;;;;;17.63;15.02;;;17.40;99.90;;;;;;4807188;29;20532;-86
2022/05/20 02:43:17;;;;;;;20.58;14.77;;;17.30;99.90;;;;;;4808786;29;20206;-86
2022/05/20 02:45:46;;;;;;;17.10;14.40;;;17.20;99.90;;;;;;4808698;29;20191;-87
2022/05/20 02:48:13;;;;;;;17.88;14.10;;;17.20;99.90;;;;;;4808932;29;20194;-86
2022/05/20 02:50:39;;;;;;;18.15;13.60;;;17.20;99.90;;;;;;4810247;29;20584;-85
2022/05/20 02:53:05;;;;;;;19.70;14.05;;;17.20;99.90;;;;;;4810218;29;20654;-86
2022/05/20 02:55:30;;;;;;;19.92;14.10;;;17.20;99.90;;;;;;4808690;29;20190;-84
2022/05/20 02:57:56;;;;;;;17.85;14.25;;;17.10;99.90;;;;;;4808806;29;20190;-84
2022/05/20 03:05:51;;;;;;;17.08;13.75;;;16.90;99.90;;;;;;4809704;29;20514;-86
2022/05/20 03:08:18;;;;;;;17.33;13.60;;;16.90;99.90;;;;;;4809761;29;20182;-87
2022/05/20 03:10:44;;;;;;;17.40;13.77;;;16.80;99.90;;;;;;4793601;29;20596;-85
2022/05/20 03:13:09;;;;;;;15.90;13.57;;;16.70;99.90;;;;;;4790718;29;20186;-86
2022/05/20 03:15:38;;;;;;;17.65;13.27;;;16.70;99.90;;;;;;4791414;29;20176;-87
2022/05/20 03:18:04;;;;;;;16.35;13.95;;;16.70;99.90;;;;;;4791488;29;20187;-86
2022/05/20 03:20:30;;;;;;;17.20;13.68;;;16.70;99.90;;;;;;4791899;29;20176;-86
2022/05/20 03:22:57;;;;;;;17.55;13.82;;;16.60;99.90;;;;;;4791553;29;20183;-85
2022/05/20 03:25:22;;;;;;;20.05;13.85;;;16.50;99.90;;;;;;4791350;29;20207;-86
2022/05/20 03:27:48;;;;;;;18.30;14.30;;;16.50;99.90;;;;;;4791441;30;20218;-86
2022/05/20 03:30:15;;;;;;;19.30;14.30;;;16.50;99.90;;;;;;4789942;30;20297;-86
2022/05/20 03:32:42;;;;;;;17.15;14.40;;;16.50;99.90;;;;;;4791318;30;20574;-86
2022/05/20 03:35:09;;;;;;;20.92;13.85;;;16.40;99.90;;;;;;4791225;29;20184;-86
2022/05/20 03:37:35;;;;;;;18.30;13.93;;;16.40;99.90;;;;;;4791220;30;20240;-87
2022/05/20 03:40:00;;;;;;;16.35;13.20;;;16.40;99.90;;;;;;4800618;29;20194;-85
2022/05/20 03:42:26;;;;;;;15.82;13.00;;;16.40;99.90;;;;;;4809159;29;20266;-85
2022/05/20 03:44:52;;;;;;;17.30;13.10;;;16.40;99.90;;;;;;4808801;29;20266;-86
2022/05/20 03:47:19;;;;;;;19.45;13.45;;;16.30;99.90;;;;;;4809215;29;20190;-87
2022/05/20 03:49:46;;;;;;;15.57;12.82;;;16.20;99.90;;;;;;4809190;29;20614;-85
2022/05/20 03:52:12;;;;;;;17.48;13.20;;;16.20;99.90;;;;;;4808969;29;20246;-84
2022/05/20 03:54:40;;;;;;;15.73;12.82;;;16.20;99.90;;;;;;4808917;29;20244;-87
2022/05/20 03:57:06;;;;;;;22.77;13.38;;;16.10;99.90;;;;;;4809014;29;20178;-86
2022/05/20 03:59:36;;;;;;;15.50;12.15;;;16.20;99.90;;;;;;4808683;29;20186;-86
2022/05/20 04:02:07;;;;;;;17.38;12.88;;;16.10;99.90;;;;;;4808970;29;20185;-86
2022/05/20 04:04:41;;;;;;;13.32;11.73;;;16.20;99.90;;;;;;4807523;29;20215;-86
2022/05/20 04:07:13;;;;;;;17.02;12.05;;;16.20;99.90;;;;;;4808875;29;20186;-87
2022/05/20 04:09:39;;;;;;;18.17;12.85;;;16.10;99.90;;;;;;4815796;29;20197;-86
2022/05/20 04:12:08;;;;;;;17.95;12.52;;;16.10;99.90;;;;;;4825718;29;20238;-86
2022/05/20 04:14:34;;;;;;;15.93;12.93;;;16.20;99.90;;;;;;4826663;29;20181;-86
2022/05/20 04:17:00;;;;;;;15.88;11.70;;;16.10;99.90;;;;;;4825670;29;20178;-86
2022/05/20 04:19:29;;;;;;;15.73;12.82;;;16.20;99.90;;;;;;4825413;29;20219;-86
2022/05/20 04:21:58;;;;;;;15.98;12.40;;;16.20;99.90;;;;;;4826582;29;20630;-88
2022/05/20 04:24:24;;;;;;;18.08;12.40;;;16.30;99.90;;;;;;4824981;29;20234;-86
2022/05/20 04:26:49;;;;;;;16.45;13.40;;;16.30;99.90;;;;;;4826392;29;20172;-85
2022/05/20 04:29:15;;;;;;;17.45;11.95;;;16.40;99.90;;;;;;4825174;29;20186;-85
2022/05/20 04:31:48;;;;;;;15.98;11.75;;;16.40;99.90;;;;;;4826869;29;20234;-86
2022/05/20 04:34:14;;;;;;;17.40;12.43;;;16.40;99.90;;;;;;4826304;29;20181;-85
2022/05/20 04:36:40;;;;;;;17.63;12.00;;;16.50;99.90;;;;;;4826375;29;20174;-85
2022/05/20 04:39:06;;;;;;;13.38;10.95;;;16.50;99.90;;;;;;4823730;29;20189;-84
2022/05/20 04:47:05;;;;;;;13.60;10.82;;;16.60;99.90;;;;;;4808161;29;20200;-87
2022/05/20 04:49:32;;;;;;;14.38;12.13;;;16.60;99.90;;;;;;4807892;29;20198;-86
2022/05/20 04:52:00;;;;;;;13.68;10.90;;;16.60;99.90;;;;;;4808156;29;20638;-88
2022/05/20 04:57:23;;;;;;;13.43;11.65;;;16.60;99.90;;;;;;4807898;29;20630;-85
2022/05/20 04:59:51;;;;;;;16.63;11.40;;;16.60;99.90;;;;;;4807691;29;20171;-86
2022/05/20 05:02:17;;;;;;;14.45;12.43;;;16.60;99.90;;;;;;4807742;29;20182;-86
2022/05/20 05:04:44;;;;;;;15.23;11.55;;;16.60;99.90;;;;;;4806335;29;20221;-85
2022/05/20 05:07:11;;;;;;;15.38;12.07;;;16.60;99.90;;;;;;4807844;29;20167;-86
2022/05/20 05:09:39;;;;;;;15.45;12.38;;;16.70;99.90;;;;;;4799808;29;20199;-85
2022/05/20 05:12:06;;;;;;;15.48;11.30;;;16.70;99.90;;;;;;4789620;29;20223;-86
2022/05/20 05:14:44;;;;;;;13.75;11.52;;;16.70;99.90;;;;;;4788177;29;20248;-87
2022/05/20 05:17:12;;;;;;;14.70;11.02;;;16.70;99.90;;;;;;4789801;29;20600;-87
2022/05/20 05:19:39;;;;;;;17.40;11.25;;;16.70;99.90;;;;;;4788525;29;20191;-86
2022/05/20 05:22:09;;;;;;;14.35;10.95;;;16.70;99.90;;;;;;4788384;29;20219;-85
2022/05/20 05:24:36;;;;;;;17.90;11.55;;;16.80;99.90;;;;;;4789526;29;20219;-85
2022/05/20 05:27:04;;;;;;;16.80;11.95;;;16.80;99.90;;;;;;4788488;29;20182;-85
2022/05/20 05:29:30;;;;;;;17.10;11.70;;;16.90;99.90;;;;;;4789328;29;20616;-86
2022/05/20 05:31:57;;;;;;;12.88;10.45;;;16.90;99.90;;;;;;4787931;29;20320;-85
2022/05/20 05:34:23;;;;;;;16.73;10.63;;;16.90;99.90;;;;;;4789215;29;20183;-87
2022/05/20 05:36:48;;;;;;;13.65;10.63;;;16.90;99.90;;;;;;4792112;29;20600;-83
2022/05/20 05:39:14;;;;;;;12.88;11.43;;;16.90;99.90;;;;;;4792616;29;20195;-85
2022/05/20 05:41:40;;;;;;;15.32;12.65;;;17.00;99.90;;;;;;4801858;29;20225;-87
2022/05/20 05:44:06;;;;;;;14.35;11.25;;;17.00;99.90;;;;;;4810615;29;20217;-83
2022/05/20 05:46:32;;;;;;;14.02;11.20;;;16.90;99.90;;;;;;4809124;29;20190;-86
2022/05/20 05:48:58;;;;;;;16.30;10.63;;;16.80;99.90;;;;;;4815352;29;20509;-85
2022/05/20 05:51:25;;;;;;;14.65;11.07;;;16.80;99.90;;;;;;4807677;29;20201;-86
2022/05/20 05:53:51;;;;;;;16.58;10.07;;;16.70;99.90;;;;;;4810380;29;20185;-86
2022/05/20 05:56:17;;;;;;;13.27;10.10;;;16.80;99.90;;;;;;4809477;29;20190;-85
2022/05/20 05:58:46;;;;;;;12.48;9.65;;;16.80;99.90;;;;;;4809274;29;20687;-85
2022/05/20 06:01:13;;;;;;;17.83;10.48;;;16.80;99.90;;;;;;4809102;29;20571;-87
2022/05/20 06:03:38;;;;;;;12.77;9.13;;;16.90;99.90;;;;;;4809251;29;20829;-85
2022/05/20 06:06:04;;;;;;;11.68;9.73;;;17.00;99.90;;;;;;4809426;29;20269;-86
2022/05/20 06:08:30;;;;;;;14.27;9.70;;;17.00;99.90;;;;;;4808976;29;20193;-86
2022/05/20 06:10:55;;;;;;;14.32;9.73;;;17.00;99.90;;;;;;4810289;29;20290;-86
2022/05/20 06:13:25;;;;;;;13.73;9.73;;;17.00;99.90;;;;;;4809463;29;20225;-85
2022/05/20 06:15:52;;;;;;;13.00;9.43;;;17.00;99.90;;;;;;4808511;29;20202;-86
2022/05/20 06:18:18;;;;;;;11.20;9.52;;;17.00;99.90;;;;;;4807871;29;20194;-86
2022/05/20 06:20:44;;;;;;;13.77;9.65;;;17.00;99.90;;;;;;4808873;29;20250;-87
2022/05/20 06:23:10;;;;;;;12.23;9.30;;;17.00;99.90;;;;;;4809939;29;20182;-86
2022/05/20 06:25:35;;;;;;;10.45;8.93;;;17.00;99.90;;;;;;4808607;29;20256;-86
2022/05/20 06:28:07;;;;;;;17.25;9.52;;;17.10;99.90;;;;;;4808007;29;20198;-85
2022/05/20 06:30:33;;;;;;;12.23;9.23;;;17.10;99.90;;;;;;4808453;29;20541;-85
2022/05/20 06:33:00;;;;;;;12.73;9.43;;;17.10;99.90;;;;;;4808704;29;20186;-87
2022/05/20 06:40:55;;;;;;;17.63;9.38;;;17.20;99.90;;;;;;4826134;29;20201;-88
2022/05/20 06:43:22;;;;;;;13.15;9.63;;;17.10;99.90;;;;;;4827330;29;20238;-88
2022/05/20 06:45:50;;;;;;;11.73;9.23;;;17.10;99.90;;;;;;4827145;29;20250;-90
2022/05/20 06:48:16;;;;;;;15.55;10.30;;;17.20;99.90;;;;;;4818944;29;20190;-88
2022/05/20 06:50:42;;;;;;;11.20;9.38;;;17.40;99.90;;;;;;4808422;29;20195;-89
2022/05/20 06:53:08;;;;;;;16.60;10.05;;;17.40;99.90;;;;;;4814305;29;20189;-88
2022/05/20 06:55:35;;;;;;;13.48;10.05;;;17.40;99.90;;;;;;4826276;29;20296;-88
2022/05/20 06:58:02;;;;;;;13.05;10.10;;;17.40;99.90;;;;;;4825102;29;20556;-87
2022/05/20 07:00:28;;;;;;;16.15;10.55;;;17.60;99.90;;;;;;4821998;29;20191;-88
2022/05/20 07:02:54;;;;;;;15.32;10.82;;;17.60;99.90;;;;;;4808302;29;20190;-86
2022/05/20 07:05:20;;;;;;;14.85;10.73;;;17.70;99.90;;;;;;4808303;29;20255;-89
2022/05/20 07:07:46;;;;;;;15.40;10.57;;;17.70;99.90;;;;;;4814540;29;20218;-87
2022/05/20 07:10:14;;;;;;;12.15;10.70;;;17.70;99.90;;;;;;4808138;29;20187;-87
2022/05/20 07:12:39;;;;;;;15.52;10.48;;;17.70;99.90;;;;;;4808243;29;20286;-87
2022/05/20 07:15:06;;;;;;;14.35;12.02;;;17.80;99.90;;;;;;4808163;29;20218;-88
2022/05/20 07:17:32;;;;;;;14.65;12.35;;;17.90;99.90;;;;;;4807882;29;20190;-89
2022/05/20 07:19:58;;;;;;;11.82;10.60;;;18.20;99.90;;;;;;4808578;29;20243;-89
2022/05/20 07:22:24;;;;;;;18.20;10.93;;;18.30;99.90;;;;;;4808533;29;20186;-91
2022/05/20 07:24:50;;;;;;;12.35;10.45;;;18.40;99.90;;;;;;4809496;29;20253;-87
2022/05/20 07:27:16;;;;;;;11.32;9.00;;;18.40;99.90;;;;;;4808556;29;20558;-87
2022/05/20 07:29:42;;;;;;;12.98;9.55;;;18.40;99.90;;;;;;4807704;29;20215;-87
2022/05/20 07:32:08;;;;;;;13.07;10.82;;;18.40;99.90;;;;;;4809337;29;20229;-88
2022/05/20 07:34:34;;;;;;;13.85;10.48;;;18.40;99.90;;;;;;4807480;29;20195;-88
2022/05/20 07:37:00;;;;;;;14.40;9.20;;;18.40;99.90;;;;;;4808014;29;20210;-87
2022/05/20 07:39:26;;;;;;;12.18;9.85;;;18.30;99.90;;;;;;4807731;29;20203;-86
2022/05/20 07:41:52;;;;;;;11.80;8.68;;;18.50;99.90;;;;;;4807869;29;20234;-87
2022/05/20 07:44:18;;;;;;;10.07;7.85;;;18.60;99.90;;;;;;4807576;29;20522;-87
2022/05/20 07:46:44;;;;;;;11.43;8.98;;;18.80;99.90;;;;;;4807619;29;20277;-87
2022/05/20 07:49:10;;;;;;;11.50;9.30;;;19.00;99.90;;;;;;4807329;29;20217;-86
2022/05/20 07:51:40;;;;;;;13.13;9.07;;;19.10;99.90;;;;;;4807569;29;20622;-86
2022/05/20 07:54:12;;;;;;;16.23;10.40;;;19.10;99.90;;;;;;4807488;29;20193;-87
2022/05/20 07:56:55;;;;;;;12.77;10.70;;;19.20;99.90;;;;;;4808377;29;20175;-85
2022/05/20 07:59:45;;;;;;;10.43;9.02;;;19.20;99.90;;;;;;4804063;29;20526;-86
2022/05/20 08:02:12;;;;;;;12.82;8.10;;;19.30;99.90;;;;;;4790200;29;20262;-84
2022/05/20 08:04:53;;;;;;;8.90;7.00;;;19.30;99.90;;;;;;4788895;30;20222;-85
2022/05/20 08:07:21;;;;;;;9.73;7.07;;;19.40;99.90;;;;;;4800825;29;20198;-85
2022/05/20 08:09:47;;;;;;;11.00;7.35;;;19.50;99.90;;;;;;4806626;29;20205;-84
2022/05/20 08:12:13;;;;;;;14.35;8.90;;;19.60;99.90;;;;;;4806733;29;20345;-86
2022/05/20 08:14:39;;;;;;;12.18;9.60;;;19.70;99.90;;;;;;4807030;29;20205;-87
2022/05/20 08:17:05;;;;;;;11.93;7.88;;;19.80;99.90;;;;;;4822559;29;20186;-85
2022/05/20 08:19:31;;;;;;;11.30;8.50;;;20.00;99.90;;;;;;4825107;29;20205;-84
2022/05/20 08:21:58;;;;;;;11.25;8.75;;;19.80;99.90;;;;;;4825253;29;20214;-84
2022/05/20 08:24:23;;;;;;;10.77;7.60;;;19.60;99.90;;;;;;4825069;29;20229;-84
2022/05/20 08:26:50;;;;;;;10.00;7.53;;;19.40;99.90;;;;;;4825454;29;20178;-86
2022/05/20 08:29:16;;;;;;;11.30;7.97;;;19.40;99.90;;;;;;4826386;29;20246;-84
2022/05/20 08:31:42;;;;;;;9.65;7.55;;;19.50;99.90;;;;;;4822634;29;20626;-84
2022/05/20 08:34:09;;;;;;;10.13;8.40;;;19.60;99.90;;;;;;4807394;29;20310;-85
2022/05/20 08:36:36;;;;;;;9.75;7.28;;;19.80;99.90;;;;;;4806649;29;20183;-86
2022/05/20 08:39:03;;;;;;;9.57;6.97;;;19.90;99.90;;;;;;4806587;29;20187;-85
2022/05/20 08:41:33;;;;;;;10.20;7.65;;;20.00;99.90;;;;;;4806482;29;20269;-84
2022/05/20 08:44:00;;;;;;;7.88;6.88;;;20.10;99.90;;;;;;4806403;29;20242;-83
2022/05/20 08:46:26;;;;;;;9.02;6.25;;;20.20;99.90;;;;;;4806411;29;20186;-84
2022/05/20 08:48:54;;;;;;;8.23;5.68;;;20.30;99.90;;;;;;4806508;29;20623;-83
2022/05/20 08:51:22;;;;;;;9.07;5.80;;;20.40;99.90;;;;;;4806590;29;20190;-83
2022/05/20 08:53:49;;;;;;;10.70;5.50;;;20.40;99.90;;;;;;4806204;29;20574;-85
2022/05/20 08:56:19;;;;;;;6.35;4.60;;;20.40;99.90;;;;;;4805666;29;20258;-83
2022/05/20 08:58:54;;;;;;;10.38;6.28;;;20.50;99.90;;;;;;4806010;29;20201;-83
2022/05/20 09:01:34;;;;;;;7.13;5.53;;;20.50;99.90;;;;;;4806561;29;20193;-81
2022/05/20 09:04:01;;;;;;;7.57;5.88;;;20.70;99.90;;;;;;4819888;29;20225;-83
2022/05/20 09:06:27;;;;;;;5.82;4.50;;;20.80;99.90;;;;;;4805305;29;20211;-84
2022/05/20 09:09:13;;;;;;;6.45;4.88;;;20.80;99.90;;;;;;4807146;29;20170;-83
2022/05/20 09:11:41;;;;;;;5.85;4.80;;;21.00;99.90;;;;;;4805612;29;20317;-84
2022/05/20 09:17:41;;;;;;;6.85;4.45;;;21.30;99.90;;;;;;4807282;29;20239;-82
2022/05/20 09:20:08;;;;;;;6.72;5.35;;;21.30;99.90;;;;;;4772323;30;20187;-83
2022/05/20 09:22:36;;;;;;;5.68;5.07;;;21.20;99.90;;;;;;4798199;29;20223;-84
2022/05/20 09:25:18;;;;;;;5.28;4.70;;;21.20;99.90;;;;;;4801251;29;20230;-84
2022/05/20 09:27:44;;;;;;;6.25;4.82;;;21.30;99.90;;;;;;4805038;29;20589;-83
2022/05/20 09:30:13;;;;;;;6.40;4.97;;;21.30;99.90;;;;;;4806613;29;20265;-83
2022/05/20 09:32:47;;;;;;;9.02;5.43;;;21.40;99.70;;;;;;4806263;29;20630;-83
2022/05/20 09:35:19;;;;;;;6.90;5.70;;;21.50;99.90;;;;;;4804921;29;20297;-82
2022/05/20 09:37:48;;;;;;;6.60;5.57;;;21.50;99.90;;;;;;4805640;29;20194;-82
2022/05/20 09:40:41;;;;;;;7.13;5.60;;;21.60;99.90;;;;;;4806612;29;20183;-83
2022/05/20 09:43:21;;;;;;;6.38;4.60;;;21.60;99.90;;;;;;4806634;29;20629;-83
2022/05/20 09:45:49;;;;;;;4.60;4.03;;;21.70;99.90;;;;;;4806273;29;20285;-83
2022/05/20 09:48:23;;;;;;;6.65;4.60;;;21.80;99.90;;;;;;4805740;29;20179;-82
2022/05/20 09:51:18;;;;;;;5.47;4.00;;;21.70;99.90;;;;;;4806544;29;20263;-84
2022/05/20 09:54:04;;;;;;;6.00;4.30;;;21.80;99.90;;;;;;4805451;29;20682;-82
2022/05/20 09:56:33;;;;;;;4.75;4.25;;;21.80;99.90;;;;;;4806945;29;20183;-83
2022/05/20 09:59:35;;;;;;;5.40;4.40;;;21.80;99.90;;;;;;4806714;29;20174;-83
2022/05/20 10:02:07;;;;;;;4.80;4.00;;;21.90;99.70;;;;;;4798453;29;20198;-83
2022/05/20 10:04:52;;;;;;;4.60;4.13;;;21.90;99.60;;;;;;4806741;29;20285;-83
2022/05/20 10:07:33;;;;;;;4.72;3.85;;;22.10;99.90;;;;;;4805637;29;20281;-82
2022/05/20 10:10:09;;;;;;;5.35;3.92;;;22.30;98.60;;;;;;4804798;29;20193;-82
2022/05/20 10:12:38;;;;;;;5.93;4.32;;;22.40;99.10;;;;;;4805870;29;20245;-82
2022/05/20 10:15:13;;;;;;;4.68;3.70;;;22.50;95.50;;;;;;4805038;29;20273;-83
2022/05/20 10:18:01;;;;;;;6.50;3.28;;;22.30;95.60;;;;;;4804919;29;20190;-82
2022/05/20 10:20:36;;;;;;;4.47;3.85;;;22.30;98.40;;;;;;4806414;29;20255;-83
2022/05/20 10:23:24;;;;;;;5.97;4.43;;;22.40;97.60;;;;;;4807367;29;20660;-81
2022/05/20 10:26:28;;;;;;;4.05;3.65;;;22.30;99.00;;;;;;4809745;29;20183;-84
2022/05/20 10:34:42;;;;;;;5.30;3.53;;;22.60;96.20;;;;;;4811694;29;20757;-83
2022/05/20 10:37:27;;;;;;;5.90;3.50;;;22.80;94.00;;;;;;4826256;29;20281;-81
2022/05/20 10:40:22;;;;;;;5.20;2.75;;;22.90;94.50;;;;;;4819317;29;20190;-82
2022/05/20 10:42:56;;;;;;;4.70;3.58;;;23.10;95.90;;;;;;4808206;29;20228;-81
2022/05/20 10:48:35;;;;;;;5.55;4.35;;;23.10;95.20;;;;;;4791687;30;20182;-84
2022/05/20 10:51:26;;;;;;;5.22;4.68;;;23.10;96.10;;;;;;4805720;29;20214;-86
2022/05/20 10:54:12;;;;;;;6.22;5.30;;;23.10;96.40;;;;;;4809429;29;20497;-83
2022/05/20 10:56:53;;;;;;;6.90;5.10;;;23.30;94.20;;;;;;4804861;29;20195;-82
2022/05/20 10:59:36;;;;;;;6.80;4.68;;;23.30;95.60;;;;;;4809473;29;20575;-80
2022/05/20 11:02:24;;;;;;;5.38;4.85;;;23.30;95.70;;;;;;4809034;29;20609;-80
2022/05/20 11:05:10;;;;;;;6.68;4.80;;;23.30;94.60;;;;;;4809181;29;20275;-81
2022/05/20 11:08:04;;;;;;;5.50;4.03;;;23.40;94.30;;;;;;4808226;29;20182;-81
2022/05/20 11:11:08;;;;;;;5.43;4.32;;;23.50;96.90;;;;;;4808466;29;20565;-81
2022/05/20 11:14:01;;;;;;;4.53;3.78;;;23.60;94.90;;;;;;4807863;29;20190;-81
2022/05/20 11:17:17;;;;;;;4.47;3.85;;;23.60;95.60;;;;;;4807681;29;20222;-81
2022/05/20 11:19:59;;;;;;;7.38;4.28;;;23.70;95.30;;;;;;4797809;29;20293;-81
2022/05/20 11:23:08;;;;;;;5.60;4.55;;;23.70;94.90;;;;;;4809156;29;20177;-82
2022/05/20 11:25:54;;;;;;;5.55;4.35;;;23.40;96.00;;;;;;4788754;30;20290;-81
2022/05/20 11:28:32;;;;;;;4.88;4.20;;;23.40;96.30;;;;;;4809037;29;20619;-81
2022/05/20 11:31:29;;;;;;;5.32;4.10;;;23.50;96.00;;;;;;4807816;29;20267;-81
2022/05/20 11:34:23;;;;;;;5.32;4.00;;;23.60;95.20;;;;;;4808083;29;20171;-81
2022/05/20 11:36:55;;;;;;;7.70;4.00;;;23.50;96.30;;;;;;4814890;29;20200;-82
2022/05/20 11:39:26;;;;;;;5.47;4.22;;;23.50;94.80;;;;;;4822221;29;20187;-81
2022/05/20 11:42:18;;;;;;;4.93;3.92;;;23.60;94.60;;;;;;4808529;29;20183;-81
2022/05/20 11:45:11;;;;;;;6.18;4.45;;;23.80;94.20;;;;;;4808569;29;20222;-82
2022/05/20 11:48:12;;;;;;;8.05;4.90;;;24.00;95.90;;;;;;4808283;29;20174;-81
2022/05/20 11:50:50;;;;;;;4.85;4.32;;;24.00;96.10;;;;;;4804449;29;20361;-82
2022/05/20 11:53:43;;;;;;;5.78;4.32;;;24.00;95.80;;;;;;4808709;29;20610;-82
2022/05/20 11:56:21;;;;;;;6.30;4.43;;;24.20;95.50;;;;;;4806278;29;20252;-80
2022/05/20 11:59:18;;;;;;;5.75;4.03;;;23.90;96.00;;;;;;4819468;29;20212;-81
2022/05/20 12:01:48;;;;;;;4.85;3.97;;;23.60;95.70;;;;;;4824960;29;20202;-80
2022/05/20 12:04:16;;;;;;;5.35;4.30;;;23.40;95.20;;;;;;4826253;29;20262;-81
2022/05/20 12:06:55;;;;;;;7.05;4.15;;;23.20;95.40;;;;;;4826575;29;20685;-80
2022/05/20 12:09:48;;;;;;;4.78;4.25;;;23.30;96.00;;;;;;4820719;29;20198;-80
2022/05/20 12:12:25;;;;;;;5.68;4.35;;;23.60;95.90;;;;;;4808073;29;20262;-80
2022/05/20 12:14:58;;;;;;;5.22;4.43;;;23.80;95.80;;;;;;4808230;29;20277;-80
2022/05/20 12:17:39;;;;;;;6.63;4.95;;;24.00;95.10;;;;;;4807999;29;20662;-80
2022/05/20 12:26:03;;;;;;;6.82;4.38;;;23.90;95.20;;;;;;4789721;29;20175;-80
2022/05/20 12:28:31;;;;;;;6.32;4.47;;;23.60;95.80;;;;;;4789893;29;20607;-81
2022/05/20 12:31:38;;;;;;;8.55;4.13;;;23.40;96.20;;;;;;4789480;29;20183;-80
2022/05/20 12:34:07;;;;;;;6.70;4.13;;;23.40;96.90;;;;;;4791974;29;20635;-80
2022/05/20 12:36:35;;;;;;;6.15;4.20;;;23.60;95.80;;;;;;4807558;29;20620;-80
2022/05/20 12:39:07;;;;;;;5.55;4.45;;;23.80;96.80;;;;;;4807554;29;20190;-80
2022/05/20 12:41:32;;;;;;;4.57;3.65;;;24.00;95.70;;;;;;4807468;29;20620;-80
2022/05/20 12:44:15;;;;;;;5.43;4.10;;;24.10;95.30;;;;;;4806287;29;20257;-79
2022/05/20 12:47:02;;;;;;;5.13;2.30;;;24.30;93.30;;;;;;4807151;29;20179;-79
2022/05/20 12:49:33;;;;;;;5.22;1.65;;;24.50;93.80;;;;;;4807429;29;20175;-79
2022/05/20 12:52:21;;;;;;;2.03;1.73;;;24.50;93.10;;;;;;4805741;29;20186;-80
2022/05/20 12:54:50;;;;;;;3.35;1.75;;;24.50;93.00;;;;;;4807233;29;20262;-80
2022/05/20 12:57:21;;;;;;;2.95;1.70;;;24.40;93.90;;;;;;4807642;29;20281;-80
2022/05/20 12:59:56;;;;;;;3.40;1.75;;;24.30;94.30;;;;;;4806101;29;20550;-80
2022/05/20 13:02:26;;;;;;;2.72;2.25;;;24.20;93.00;;;;;;4790935;29;20186;-80
2022/05/20 13:05:00;;;;;;;3.30;2.33;;;23.90;93.40;;;;;;4804540;29;20612;-81
2022/05/20 13:07:26;;;;;;;4.05;1.90;;;23.80;93.70;;;;;;4805844;29;20514;-80
2022/05/20 13:09:52;;;;;;;2.45;1.98;;;23.60;94.30;;;;;;4805906;29;20288;-80
2022/05/20 13:12:20;;;;;;;3.15;2.08;;;23.60;94.90;;;;;;4806578;29;20317;-80
2022/05/20 13:15:00;;;;;;;2.58;2.10;;;23.50;94.80;;;;;;4806753;29;20659;-79
2022/05/20 13:17:26;;;;;;;4.25;2.17;;;23.50;95.50;;;;;;4806889;29;20179;-80
2022/05/20 13:19:54;;;;;;;2.83;2.30;;;23.60;96.10;;;;;;4807207;29;20179;-81
2022/05/20 13:22:25;;;;;;;3.90;2.67;;;24.00;94.40;;;;;;4807019;29;20174;-80
2022/05/20 13:25:06;;;;;;;3.72;2.28;;;24.30;93.10;;;;;;4805752;29;20211;-81
2022/05/20 13:27:32;;;;;;;4.95;2.22;;;24.50;93.60;;;;;;4806942;29;20257;-80
2022/05/20 13:30:14;;;;;;;2.92;2.33;;;24.50;94.40;;;;;;4805129;29;20194;-80
2022/05/20 13:32:40;;;;;;;3.70;2.30;;;24.40;94.30;;;;;;4806431;29;20186;-80
2022/05/20 13:35:06;;;;;;;4.55;2.38;;;24.10;93.60;;;;;;4806578;29;20194;-80
2022/05/20 13:37:38;;;;;;;4.00;2.40;;;23.80;94.60;;;;;;4807231;29;20214;-80
2022/05/20 13:40:11;;;;;;;4.60;2.30;;;23.70;94.80;;;;;;4805701;29;20646;-81
2022/05/20 13:42:37;;;;;;;3.03;1.60;;;23.70;96.60;;;;;;4807000;29;20187;-81